WXM80 ListenWXM80 Stop

You find our weather info also at:

UK Metoffice

WeatherCloud

Weather Underground

Northeastern Weather Network

AWEKAS

Citizen Weather Observer Program (CWOP)

HAMweather, WeatherForYou, PWS Weather


Weather Underground History page Text

Daily Summary for April 2, 2017 Units:  English    Metric   Both
« Previous Day
Next Day »
Daily Weekly Monthly Yearly Custom
  High: Low: Average:
Temperature: 63.0 °F 40.2 °F 49.6 °F
Dew Point: 40.2 °F 33.4 °F 36.5 °F
Humidity: 89 % 34 % 64 %
Wind Speed: 9.0 mph 0.0 mph 2.9 mph
Wind Gust: 13.0 mph - -
Wind:- - WNW
Pressure: 30.10 in 29.98 in -
Precipitation: 0.04 in    
Historical Graphs
 
 
Tabular Data for April 2, 2017
Time Temperature Dew Point Pressure Wind Wind Speed Wind Gust Humidity Rainfall Rate (Hourly)
00:04 41.4 °F 37.5 °F 30.00 in NW 0.5 mph 1.2 mph 86 % 0.01 in
00:09 41.4 °F 37.5 °F 30.00 in NW 0.2 mph 1.2 mph 86 % 0.01 in
00:14 41.4 °F 37.5 °F 30.00 in NW 0.7 mph 2.3 mph 86 % 0.01 in
00:19 41.3 °F 37.7 °F 30.01 in NNW 0.3 mph 1.2 mph 87 % 0.01 in
00:24 41.3 °F 37.7 °F 30.01 in NW 0.5 mph 1.2 mph 87 % 0.01 in
00:29 41.2 °F 37.6 °F 30.00 in Calm   2.3 mph 87 % 0.01 in
00:34 41.2 °F 37.6 °F 30.01 in NW 0.1 mph 1.2 mph 87 % 0.01 in
00:39 41.2 °F 37.6 °F 30.01 in Calm     87 % 0.01 in
00:44 41.1 °F 37.5 °F 30.01 in Calm     87 % 0.01 in
00:49 41.1 °F 37.5 °F 30.01 in Calm     87 % 0.01 in
00:54 41.1 °F 37.5 °F 30.01 in Calm     87 % 0.00 in
00:59 41.0 °F 37.4 °F 30.00 in Calm     87 % 0.00 in
01:04 41.0 °F 37.4 °F 30.01 in Calm     87 % 0.01 in
01:09 41.0 °F 37.4 °F 30.00 in Calm     87 % 0.01 in
01:14 41.0 °F 37.4 °F 30.01 in NW 0.1 mph 2.3 mph 87 % 0.01 in
01:19 41.0 °F 37.4 °F 30.01 in NW 0.1 mph 2.3 mph 87 % 0.01 in
01:25 41.0 °F 37.4 °F 30.00 in NW 0.6 mph 2.3 mph 87 % 0.01 in
01:30 41.0 °F 37.4 °F 30.00 in Calm     87 % 0.01 in
01:35 41.0 °F 37.7 °F 30.01 in WNW 0.4 mph 1.2 mph 88 % 0.01 in
01:40 41.0 °F 37.4 °F 30.01 in WNW 0.9 mph 3.5 mph 87 % 0.01 in
01:45 41.0 °F 37.4 °F 30.01 in WNW 1.6 mph 3.5 mph 87 % 0.01 in
01:50 41.0 °F 37.4 °F 30.01 in West 2.5 mph 4.6 mph 87 % 0.01 in
01:55 41.1 °F 37.5 °F 30.00 in WNW 1.2 mph 3.5 mph 87 % 0.01 in
02:00 41.1 °F 37.5 °F 30.01 in NW 3.1 mph 4.6 mph 87 % 0.01 in
02:05 41.2 °F 37.3 °F 30.00 in WNW 2.4 mph 4.6 mph 86 % 0.00 in
02:10 41.2 °F 37.3 °F 30.00 in WNW 2.5 mph 6.0 mph 86 % 0.00 in
02:15 41.3 °F 37.4 °F 30.00 in WNW 1.8 mph 3.5 mph 86 % 0.00 in
02:20 41.3 °F 37.4 °F 30.00 in West 3.5 mph 6.0 mph 86 % 0.01 in
02:25 41.3 °F 37.4 °F 30.00 in WNW 1.0 mph 2.0 mph 86 % 0.01 in
02:30 41.3 °F 37.4 °F 30.00 in WNW 0.7 mph 3.5 mph 86 % 0.01 in
02:35 41.3 °F 37.4 °F 30.00 in WNW 0.6 mph 3.5 mph 86 % 0.01 in
02:40 41.3 °F 37.4 °F 30.00 in WNW 3.0 mph 3.5 mph 86 % 0.01 in
02:45 41.3 °F 37.4 °F 30.00 in WNW 1.7 mph 3.5 mph 86 % 0.01 in
02:50 41.3 °F 37.4 °F 30.00 in WNW 1.2 mph 3.5 mph 86 % 0.01 in
02:55 41.3 °F 37.4 °F 30.00 in NW 0.7 mph 3.5 mph 86 % 0.01 in
03:00 41.3 °F 37.4 °F 30.00 in WNW 1.6 mph 3.5 mph 86 % 0.01 in
03:05 41.3 °F 37.7 °F 30.01 in WNW 1.6 mph 3.5 mph 87 % 0.01 in
03:10 41.3 °F 37.4 °F 30.00 in WNW 2.1 mph 4.0 mph 86 % 0.01 in
03:15 41.3 °F 37.7 °F 30.00 in WNW 2.6 mph 3.0 mph 87 % 0.01 in
03:20 41.3 °F 37.4 °F 30.00 in West 1.5 mph 3.5 mph 86 % 0.00 in
03:25 41.3 °F 37.7 °F 30.00 in West 0.8 mph 3.0 mph 87 % 0.00 in
03:30 41.2 °F 37.6 °F 30.00 in West 0.5 mph 3.5 mph 87 % 0.00 in
03:35 41.2 °F 37.6 °F 30.01 in WNW 0.3 mph 2.3 mph 87 % 0.00 in
03:40 41.2 °F 37.6 °F 30.01 in WNW 1.2 mph 5.0 mph 87 % 0.00 in
03:45 41.2 °F 37.6 °F 30.01 in WNW 0.5 mph 3.5 mph 87 % 0.00 in
03:50 41.1 °F 37.5 °F 30.01 in WNW 0.2 mph 2.3 mph 87 % 0.00 in
03:55 41.1 °F 37.5 °F 30.00 in WNW 0.2 mph 1.2 mph 87 % 0.00 in
04:00 41.1 °F 37.5 °F 30.00 in WNW 1.7 mph 3.5 mph 87 % 0.00 in
04:06 41.1 °F 37.5 °F 30.01 in WNW 0.6 mph 3.5 mph 87 % 0.00 in
04:11 41.1 °F 37.5 °F 30.01 in WNW 1.6 mph 5.8 mph 87 % 0.00 in
04:16 41.0 °F 37.4 °F 30.01 in WNW 1.8 mph 3.5 mph 87 % 0.00 in
04:21 41.0 °F 37.4 °F 30.01 in West 0.2 mph 3.5 mph 87 % 0.00 in
04:26 40.9 °F 37.3 °F 30.02 in Calm   2.3 mph 87 % 0.00 in
04:31 40.8 °F 37.2 °F 30.02 in WNW 0.2 mph 2.3 mph 87 % 0.00 in
04:36 40.7 °F 37.1 °F 30.02 in West 1.0 mph 3.5 mph 87 % 0.00 in
04:41 40.7 °F 37.1 °F 30.02 in WNW 1.7 mph 4.0 mph 87 % 0.00 in
04:46 40.5 °F 36.9 °F 30.02 in West 0.9 mph 3.5 mph 87 % 0.00 in
04:51 40.4 °F 36.8 °F 30.02 in West 2.2 mph 3.5 mph 87 % 0.00 in
04:56 40.4 °F 37.1 °F 30.02 in WNW 1.7 mph 5.0 mph 88 % 0.00 in
05:01 40.4 °F 37.1 °F 30.03 in West 2.4 mph 4.0 mph 88 % 0.00 in
05:06 40.3 °F 37.0 °F 30.03 in West 1.8 mph 5.8 mph 88 % 0.00 in
05:11 40.4 °F 37.4 °F 30.03 in West 1.4 mph 3.5 mph 89 % 0.00 in
05:16 40.4 °F 37.4 °F 30.03 in WNW 0.5 mph 2.3 mph 89 % 0.01 in
05:21 40.4 °F 37.4 °F 30.04 in WNW 2.1 mph 3.5 mph 89 % 0.01 in
05:26 40.4 °F 37.4 °F 30.03 in WSW 2.7 mph 4.0 mph 89 % 0.01 in
05:31 40.5 °F 37.5 °F 30.04 in West 1.8 mph 3.5 mph 89 % 0.01 in
05:36 40.5 °F 37.5 °F 30.04 in WNW 3.0 mph 5.8 mph 89 % 0.01 in
05:41 40.6 °F 37.6 °F 30.04 in West 1.3 mph 3.5 mph 89 % 0.01 in
05:46 40.6 °F 37.6 °F 30.04 in West 0.5 mph 2.3 mph 89 % 0.01 in
05:51 40.6 °F 37.3 °F 30.04 in WNW 1.1 mph 3.5 mph 88 % 0.01 in
05:56 40.7 °F 37.4 °F 30.04 in West 3.5 mph 7.0 mph 88 % 0.01 in
06:01 40.7 °F 37.4 °F 30.05 in West 2.6 mph 4.6 mph 88 % 0.01 in
06:06 40.7 °F 37.1 °F 30.05 in WNW 2.7 mph 4.6 mph 87 % 0.01 in
06:07 40.7 °F 37.1 °F 30.05 in WNW 1.6 mph 5.0 mph 87 % 0.01 in
06:12 40.7 °F 37.1 °F 30.05 in West 3.5 mph 8.1 mph 87 % 0.01 in
06:17 40.7 °F 36.8 °F 30.06 in WNW 3.0 mph 7.0 mph 86 % 0.00 in
06:22 40.6 °F 36.7 °F 30.06 in WNW 4.6 mph 9.2 mph 86 % 0.00 in
06:27 40.5 °F 36.6 °F 30.06 in NW 2.6 mph 5.8 mph 86 % 0.00 in
06:33 40.4 °F 36.5 °F 30.07 in WNW 2.9 mph 6.9 mph 86 % 0.00 in
06:38 40.3 °F 36.4 °F 30.07 in WNW 5.5 mph 9.0 mph 86 % 0.00 in
06:43 40.2 °F 36.1 °F 30.07 in West 4.1 mph 5.8 mph 85 % 0.00 in
06:48 40.2 °F 36.1 °F 30.08 in West 5.8 mph 9.2 mph 85 % 0.00 in
06:53 40.2 °F 35.8 °F 30.08 in WNW 5.7 mph 11.5 mph 84 % 0.00 in
06:58 40.2 °F 35.8 °F 30.08 in WNW 4.6 mph 5.8 mph 84 % 0.00 in
07:03 40.3 °F 35.5 °F 30.08 in WNW 4.8 mph 9.2 mph 83 % 0.00 in
07:08 40.4 °F 35.6 °F 30.09 in NW 2.0 mph 4.6 mph 83 % 0.00 in
07:13 40.5 °F 35.7 °F 30.09 in WNW 4.4 mph 6.0 mph 83 % 0.00 in
07:18 40.6 °F 35.8 °F 30.09 in WNW 2.4 mph 6.0 mph 83 % 0.00 in
07:23 40.7 °F 35.9 °F 30.09 in WNW 4.6 mph 8.1 mph 83 % 0.00 in
07:28 40.7 °F 35.9 °F 30.09 in NNW 4.7 mph 8.1 mph 83 % 0.00 in
07:33 40.8 °F 36.0 °F 30.09 in WNW 2.4 mph 3.5 mph 83 % 0.00 in
07:38 40.9 °F 36.1 °F 30.09 in NNW 2.8 mph 5.8 mph 83 % 0.00 in
07:43 41.0 °F 36.2 °F 30.10 in WNW 1.9 mph 6.9 mph 83 % 0.00 in
07:48 41.1 °F 36.3 °F 30.09 in NW 3.8 mph 4.6 mph 83 % 0.00 in
07:53 41.3 °F 36.5 °F 30.09 in NW 3.2 mph 4.0 mph 83 % 0.00 in
07:58 41.5 °F 36.7 °F 30.09 in WNW 1.9 mph 5.0 mph 83 % 0.00 in
08:03 41.8 °F 37.0 °F 30.09 in NW 2.4 mph 5.8 mph 83 % 0.00 in
08:08 42.0 °F 37.2 °F 30.09 in NW 4.4 mph 5.0 mph 83 % 0.00 in
08:13 42.4 °F 37.6 °F 30.09 in NW 2.3 mph 4.6 mph 83 % 0.00 in
08:18 42.6 °F 37.5 °F 30.09 in NW 2.1 mph 3.5 mph 82 % 0.00 in
08:23 42.9 °F 37.8 °F 30.09 in NW 4.8 mph 5.8 mph 82 % 0.00 in
08:28 43.2 °F 37.8 °F 30.09 in WNW 4.1 mph 8.0 mph 81 % 0.00 in
08:29 43.3 °F 37.5 °F 30.10 in WNW 4.4 mph 8.1 mph 80 % 0.00 in
08:34 43.4 °F 37.6 °F 30.09 in NW 3.8 mph 8.1 mph 80 % 0.00 in
08:39 43.5 °F 37.7 °F 30.09 in WNW 3.3 mph 4.6 mph 80 % 0.00 in
08:44 43.6 °F 37.8 °F 30.10 in NW 2.0 mph 4.6 mph 80 % 0.00 in
08:50 43.7 °F 37.9 °F 30.09 in WNW 0.4 mph 3.5 mph 80 % 0.00 in
08:55 44.1 °F 38.3 °F 30.09 in West 5.2 mph 5.8 mph 80 % 0.00 in
09:00 44.5 °F 38.4 °F 30.09 in WNW 1.9 mph 4.6 mph 79 % 0.00 in
09:05 44.9 °F 38.8 °F 30.09 in WNW 2.1 mph 4.0 mph 79 % 0.00 in
09:10 45.1 °F 38.6 °F 30.09 in NNW 2.0 mph 3.5 mph 78 % 0.00 in
09:15 45.4 °F 38.6 °F 30.09 in WNW 6.0 mph 8.1 mph 77 % 0.00 in
09:20 45.6 °F 38.8 °F 30.09 in WNW 4.3 mph 5.8 mph 77 % 0.00 in
09:25 45.7 °F 38.2 °F 30.09 in WNW 5.9 mph 10.4 mph 75 % 0.00 in
09:30 45.7 °F 37.9 °F 30.09 in NW 3.5 mph 8.1 mph 74 % 0.00 in
09:35 46.0 °F 38.5 °F 30.09 in WNW 3.7 mph 10.0 mph 75 % 0.00 in
09:40 46.3 °F 38.5 °F 30.09 in NNW 3.8 mph 6.9 mph 74 % 0.00 in
09:45 46.6 °F 38.1 °F 30.09 in NW 5.2 mph 9.2 mph 72 % 0.00 in
09:50 46.8 °F 38.2 °F 30.09 in West 2.9 mph 4.6 mph 72 % 0.00 in
09:55 47.2 °F 38.6 °F 30.09 in NNW 2.5 mph 4.0 mph 72 % 0.00 in
10:00 47.8 °F 39.2 °F 30.09 in NW 1.8 mph 4.0 mph 72 % 0.00 in
10:05 48.5 °F 39.2 °F 30.10 in West 4.0 mph 6.0 mph 70 % 0.00 in
10:10 48.7 °F 38.2 °F 30.10 in WNW 5.0 mph 7.0 mph 67 % 0.00 in
10:15 48.9 °F 38.8 °F 30.10 in WNW 3.2 mph 4.6 mph 68 % 0.00 in
10:20 49.1 °F 38.6 °F 30.10 in West 3.1 mph 6.9 mph 67 % 0.00 in
10:25 49.5 °F 39.0 °F 30.10 in WSW 2.0 mph 3.5 mph 67 % 0.00 in
10:31 49.5 °F 38.2 °F 30.09 in SW 4.9 mph 9.2 mph 65 % 0.00 in
10:36 49.4 °F 38.1 °F 30.10 in West 3.7 mph 6.9 mph 65 % 0.00 in
10:41 49.9 °F 39.8 °F 30.10 in West 3.4 mph 5.8 mph 68 % 0.00 in
10:46 50.3 °F 39.0 °F 30.09 in West 4.5 mph 6.9 mph 65 % 0.00 in
10:51 50.5 °F 38.4 °F 30.09 in NW 6.6 mph 9.2 mph 63 % 0.00 in
10:56 50.6 °F 38.1 °F 30.09 in West 4.9 mph 11.5 mph 62 % 0.00 in
11:01 50.9 °F 38.3 °F 30.09 in WNW 3.1 mph 6.0 mph 62 % 0.00 in
11:06 51.2 °F 38.2 °F 30.09 in West 5.4 mph 8.1 mph 61 % 0.00 in
11:11 51.2 °F 38.2 °F 30.09 in WNW 5.5 mph 9.2 mph 61 % 0.00 in
11:16 51.4 °F 38.0 °F 30.09 in WNW 5.4 mph 8.1 mph 60 % 0.00 in
11:17 51.5 °F 38.1 °F 30.09 in WNW 5.5 mph 9.0 mph 60 % 0.00 in
11:22 51.8 °F 39.2 °F 30.09 in West 2.9 mph 5.8 mph 62 % 0.00 in
11:27 52.9 °F 40.2 °F 30.08 in WSW 3.8 mph 5.8 mph 62 % 0.00 in
11:32 53.3 °F 39.8 °F 30.08 in West 3.6 mph 6.9 mph 60 % 0.00 in
11:37 53.9 °F 39.5 °F 30.08 in West 3.4 mph 5.8 mph 58 % 0.00 in
11:42 54.2 °F 38.8 °F 30.08 in SSW 5.7 mph 10.4 mph 56 % 0.00 in
11:47 54.6 °F 38.3 °F 30.08 in West 4.7 mph 9.2 mph 54 % 0.00 in
11:52 55.0 °F 39.1 °F 30.08 in WSW 4.8 mph 8.1 mph 55 % 0.00 in
11:57 55.4 °F 39.0 °F 30.08 in WSW 3.3 mph 5.8 mph 54 % 0.00 in
12:02 55.3 °F 38.0 °F 30.08 in West 5.8 mph 11.5 mph 52 % 0.00 in
12:07 55.1 °F 38.3 °F 30.07 in WSW 5.0 mph 12.0 mph 53 % 0.00 in
12:12 55.3 °F 38.4 °F 30.07 in SW 9.0 mph 13.0 mph 53 % 0.00 in
12:17 55.4 °F 39.0 °F 30.07 in SW 6.0 mph 10.0 mph 54 % 0.00 in
12:22 55.9 °F 38.5 °F 30.06 in WSW 7.0 mph 13.0 mph 52 % 0.00 in
12:27 56.2 °F 38.8 °F 30.06 in WSW 5.0 mph 10.0 mph 52 % 0.00 in
12:32 56.9 °F 38.9 °F 30.06 in SSW 2.1 mph 8.1 mph 51 % 0.00 in
12:37 57.2 °F 39.2 °F 30.06 in WSW 5.2 mph 7.0 mph 51 % 0.00 in
12:42 57.6 °F 38.0 °F 30.06 in WSW 6.7 mph 10.4 mph 48 % 0.00 in
12:47 58.0 °F 36.8 °F 30.05 in WNW 6.7 mph 10.4 mph 45 % 0.00 in
12:52 57.8 °F 38.2 °F 30.06 in WSW 2.5 mph 10.4 mph 48 % 0.00 in
12:57 57.9 °F 37.8 °F 30.05 in WSW 6.7 mph 8.0 mph 47 % 0.00 in
13:02 57.9 °F 38.3 °F 30.05 in WSW 7.0 mph 12.0 mph 48 % 0.00 in
13:07 57.8 °F 37.7 °F 30.05 in WSW 6.0 mph 10.0 mph 47 % 0.00 in
13:12 58.1 °F 38.0 °F 30.04 in SW 6.0 mph 12.0 mph 47 % 0.00 in
13:17 58.5 °F 38.3 °F 30.04 in WSW 3.0 mph 8.0 mph 47 % 0.00 in
13:22 58.7 °F 36.8 °F 30.04 in WSW 6.0 mph 9.0 mph 44 % 0.00 in
13:27 59.1 °F 37.8 °F 30.04 in WSW 5.0 mph 9.0 mph 45 % 0.00 in
13:32 59.6 °F 36.4 °F 30.04 in West 3.0 mph 9.0 mph 42 % 0.00 in
13:37 59.8 °F 34.7 °F 30.03 in WSW 6.0 mph 12.0 mph 39 % 0.00 in
13:42 60.0 °F 36.2 °F 30.03 in WNW 3.5 mph 8.1 mph 41 % 0.00 in
13:47 60.3 °F 35.9 °F 30.04 in West 1.2 mph 8.1 mph 40 % 0.00 in
13:52 60.7 °F 36.8 °F 30.04 in SW 7.6 mph 8.0 mph 41 % 0.00 in
13:57 60.8 °F 35.0 °F 30.03 in West 5.7 mph 5.8 mph 38 % 0.00 in
14:02 61.0 °F 35.8 °F 30.02 in SW 5.2 mph 9.0 mph 39 % 0.00 in
14:07 61.1 °F 37.2 °F 30.02 in West 4.3 mph 6.9 mph 41 % 0.00 in
14:12 61.3 °F 36.1 °F 30.02 in WSW 5.4 mph 9.2 mph 39 % 0.00 in
14:13 61.3 °F 35.5 °F 30.02 in West 6.6 mph 9.2 mph 38 % 0.00 in
14:18 60.7 °F 34.9 °F 30.02 in West 2.5 mph 8.1 mph 38 % 0.00 in
14:23 61.0 °F 38.3 °F 30.02 in West 1.0 mph 4.6 mph 43 % 0.00 in
14:28 61.4 °F 36.8 °F 30.02 in West 4.1 mph 11.5 mph 40 % 0.00 in
14:33 61.5 °F 34.3 °F 30.02 in WSW 6.7 mph 10.4 mph 36 % 0.00 in
14:38 61.2 °F 34.7 °F 30.02 in WSW 6.3 mph 9.2 mph 37 % 0.00 in
14:43 61.4 °F 36.2 °F 30.02 in SW 6.0 mph 9.0 mph 39 % 0.00 in
14:48 61.6 °F 35.1 °F 30.02 in NW 3.3 mph 9.2 mph 37 % 0.00 in
14:53 61.6 °F 35.1 °F 30.01 in NW 3.8 mph 9.0 mph 37 % 0.00 in
14:58 61.6 °F 34.4 °F 30.01 in NW 6.4 mph 9.2 mph 36 % 0.00 in
15:03 61.7 °F 34.5 °F 30.01 in SW 5.0 mph 6.9 mph 36 % 0.00 in
15:08 61.9 °F 34.6 °F 30.00 in West 6.6 mph 11.5 mph 36 % 0.00 in
15:13 62.1 °F 34.1 °F 30.00 in West 7.4 mph 11.5 mph 35 % 0.00 in
15:18 62.1 °F 34.1 °F 30.00 in WNW 3.8 mph 6.9 mph 35 % 0.00 in
15:23 62.2 °F 34.9 °F 30.00 in WNW 4.1 mph 8.1 mph 36 % 0.00 in
15:28 62.2 °F 33.5 °F 29.99 in WNW 4.7 mph 8.1 mph 34 % 0.00 in
15:33 62.2 °F 34.2 °F 29.99 in West 5.0 mph 9.2 mph 35 % 0.00 in
15:38 62.4 °F 35.8 °F 29.99 in West 2.0 mph 8.1 mph 37 % 0.00 in
15:44 62.8 °F 35.4 °F 29.99 in SW 5.8 mph 9.2 mph 36 % 0.00 in
15:49 62.9 °F 34.8 °F 29.99 in West 3.9 mph 8.0 mph 35 % 0.00 in
15:54 63.0 °F 34.9 °F 29.99 in West 4.7 mph 8.1 mph 35 % 0.00 in
15:59 62.9 °F 34.1 °F 29.99 in NW 4.4 mph 9.0 mph 34 % 0.00 in
16:04 62.7 °F 35.3 °F 29.99 in West 4.4 mph 10.0 mph 36 % 0.01 in
16:09 62.6 °F 34.5 °F 29.99 in WSW 5.8 mph 11.5 mph 35 % 0.01 in
16:14 62.7 °F 34.6 °F 29.99 in West 2.6 mph 4.6 mph 35 % 0.01 in
16:19 62.6 °F 33.8 °F 29.99 in WSW 6.4 mph 9.2 mph 34 % 0.01 in
16:24 62.2 °F 33.5 °F 29.99 in West 5.4 mph 8.1 mph 34 % 0.01 in
16:29 62.1 °F 33.4 °F 29.99 in West 3.1 mph 6.9 mph 34 % 0.01 in
16:34 62.0 °F 34.0 °F 29.98 in NW 1.0 mph 2.0 mph 35 % 0.01 in
16:39 62.1 °F 34.8 °F 29.98 in WSW 1.5 mph 4.0 mph 36 % 0.01 in
16:44 62.3 °F 34.3 °F 29.98 in West 5.5 mph 9.0 mph 35 % 0.01 in
16:49 62.2 °F 34.9 °F 29.99 in WNW 4.3 mph 5.8 mph 36 % 0.01 in
16:54 62.1 °F 34.8 °F 29.99 in NW 4.4 mph 8.1 mph 36 % 0.01 in
16:59 61.6 °F 35.1 °F 29.99 in NW 4.8 mph 11.5 mph 37 % 0.01 in
17:04 61.2 °F 34.7 °F 29.99 in West 2.1 mph 4.6 mph 37 % 0.00 in
17:09 60.9 °F 34.4 °F 29.99 in NNW 4.5 mph 5.8 mph 37 % 0.00 in
17:14 60.6 °F 34.8 °F 29.99 in NW 4.9 mph 7.0 mph 38 % 0.00 in
17:19 60.3 °F 33.9 °F 29.99 in WNW 5.2 mph 10.4 mph 37 % 0.00 in
17:25 59.9 °F 34.2 °F 29.99 in NNW 6.2 mph 10.0 mph 38 % 0.00 in
17:30 59.6 °F 34.6 °F 29.99 in NW 5.4 mph 8.1 mph 39 % 0.00 in
17:35 59.1 °F 35.4 °F 29.99 in NNW 4.7 mph 7.0 mph 41 % 0.00 in
17:40 58.5 °F 36.1 °F 29.99 in NW 3.2 mph 5.8 mph 43 % 0.00 in
17:45 58.0 °F 36.8 °F 29.99 in NE 2.4 mph 4.6 mph 45 % 0.00 in
17:50 57.2 °F 36.6 °F 29.99 in NW 3.0 mph 6.9 mph 46 % 0.00 in
17:55 56.7 °F 36.1 °F 29.99 in NW 4.8 mph 4.8 mph 46 % 0.00 in
18:00 56.3 °F 35.8 °F 30.00 in NNW 3.8 mph 4.6 mph 46 % 0.00 in
18:05 55.9 °F 35.9 °F 30.00 in NNW 1.3 mph 4.6 mph 47 % 0.00 in
18:10 55.7 °F 35.8 °F 30.00 in NW 2.5 mph 3.5 mph 47 % 0.00 in
18:15 55.6 °F 35.7 °F 30.00 in NNW 1.6 mph 4.0 mph 47 % 0.00 in
18:20 55.4 °F 36.0 °F 30.00 in NNW 6.4 mph 10.4 mph 48 % 0.00 in
18:25 55.2 °F 35.3 °F 30.00 in NW 3.6 mph 9.2 mph 47 % 0.00 in
18:30 55.0 °F 34.6 °F 30.00 in NNW 4.1 mph 9.2 mph 46 % 0.00 in
18:35 54.8 °F 34.4 °F 30.00 in NW 3.0 mph 5.8 mph 46 % 0.00 in
18:40 54.8 °F 34.4 °F 30.00 in WNW 2.9 mph 6.9 mph 46 % 0.00 in
18:45 54.7 °F 34.3 °F 30.00 in WNW 2.6 mph 5.8 mph 46 % 0.00 in
18:50 54.6 °F 34.8 °F 29.99 in WNW 2.5 mph 6.0 mph 47 % 0.00 in
18:55 54.5 °F 34.7 °F 30.00 in WNW 1.5 mph 3.5 mph 47 % 0.00 in
19:00 54.4 °F 34.0 °F 30.00 in NW 4.9 mph 9.2 mph 46 % 0.00 in
19:05 54.3 °F 33.9 °F 30.00 in NW 3.9 mph 8.1 mph 46 % 0.00 in
19:10 54.3 °F 33.4 °F 30.00 in WNW 2.6 mph 11.5 mph 45 % 0.00 in
19:15 54.3 °F 33.9 °F 30.00 in WNW 1.9 mph 8.1 mph 46 % 0.00 in
19:20 54.2 °F 34.9 °F 30.00 in NNW 2.0 mph 5.8 mph 48 % 0.00 in
19:25 54.0 °F 35.3 °F 30.00 in WNW 2.0 mph 4.6 mph 49 % 0.00 in
19:30 53.7 °F 34.5 °F 30.00 in West 3.3 mph 4.6 mph 48 % 0.00 in
19:35 53.5 °F 33.7 °F 30.00 in WNW 1.6 mph 5.8 mph 47 % 0.00 in
19:40 53.4 °F 34.2 °F 30.00 in WNW 1.5 mph 3.5 mph 48 % 0.00 in
19:45 53.2 °F 34.5 °F 30.00 in West 2.4 mph 4.6 mph 49 % 0.00 in
19:50 53.1 °F 34.9 °F 30.01 in West 0.1 mph 2.3 mph 50 % 0.00 in
19:55 53.1 °F 34.9 °F 30.00 in West 1.1 mph 3.5 mph 50 % 0.00 in
20:00 52.9 °F 35.2 °F 30.00 in West 0.9 mph 2.0 mph 51 % 0.00 in
20:05 52.7 °F 35.1 °F 30.00 in West 0.7 mph 2.3 mph 51 % 0.00 in
20:10 52.4 °F 34.8 °F 30.01 in West 1.1 mph 3.5 mph 51 % 0.00 in
20:15 52.2 °F 35.1 °F 30.01 in Calm   1.2 mph 52 % 0.00 in
20:20 52.0 °F 34.9 °F 30.01 in West 0.4 mph 2.3 mph 52 % 0.00 in
20:25 51.8 °F 34.7 °F 30.02 in West 2.1 mph 3.5 mph 52 % 0.00 in
20:31 51.5 °F 34.9 °F 30.01 in West 0.2 mph 3.5 mph 53 % 0.00 in
20:36 51.3 °F 34.7 °F 30.01 in West 0.5 mph 1.2 mph 53 % 0.00 in
20:41 51.1 °F 35.0 °F 30.02 in West 0.4 mph 1.2 mph 54 % 0.00 in
20:46 50.9 °F 34.8 °F 30.02 in West 1.0 mph 1.2 mph 54 % 0.00 in
20:51 50.6 °F 35.0 °F 30.02 in West 0.5 mph 2.3 mph 55 % 0.00 in
20:56 50.4 °F 35.3 °F 30.02 in West 0.3 mph 2.3 mph 56 % 0.00 in
21:01 50.1 °F 35.0 °F 30.02 in West 0.8 mph 2.3 mph 56 % 0.00 in
21:06 49.9 °F 34.8 °F 30.02 in West 1.3 mph 2.3 mph 56 % 0.00 in
21:11 49.6 °F 34.5 °F 30.03 in West 2.1 mph 3.5 mph 56 % 0.00 in
21:16 49.4 °F 34.3 °F 30.03 in West 1.6 mph 3.5 mph 56 % 0.00 in
21:21 49.3 °F 34.7 °F 30.03 in West 1.7 mph 3.5 mph 57 % 0.00 in
21:26 49.2 °F 35.0 °F 30.03 in West 0.3 mph 2.0 mph 58 % 0.00 in
21:31 49.0 °F 34.9 °F 30.03 in West 1.3 mph 3.5 mph 58 % 0.00 in
21:36 48.8 °F 35.1 °F 30.03 in Calm   1.2 mph 59 % 0.00 in
21:41 48.6 °F 34.0 °F 30.04 in West 0.9 mph 2.3 mph 57 % 0.00 in
21:46 48.5 °F 33.9 °F 30.04 in West 1.5 mph 3.5 mph 57 % 0.00 in
21:51 48.4 °F 34.3 °F 30.04 in West 1.1 mph 3.5 mph 58 % 0.00 in
21:56 48.3 °F 34.2 °F 30.04 in WSW 3.2 mph 5.0 mph 58 % 0.00 in
22:01 48.3 °F 34.2 °F 30.04 in WSW 1.3 mph 2.3 mph 58 % 0.00 in
22:06 48.3 °F 34.2 °F 30.04 in WSW 3.8 mph 6.9 mph 58 % 0.00 in
22:11 48.5 °F 33.9 °F 30.04 in West 2.6 mph 4.6 mph 57 % 0.00 in
22:16 48.8 °F 33.8 °F 30.04 in West 2.4 mph 4.6 mph 56 % 0.00 in
22:21 49.1 °F 34.1 °F 30.04 in West 2.3 mph 7.0 mph 56 % 0.00 in
22:26 49.5 °F 34.4 °F 30.04 in WSW 2.7 mph 3.5 mph 56 % 0.00 in
22:31 49.7 °F 34.6 °F 30.04 in West 2.1 mph 4.0 mph 56 % 0.00 in
22:36 50.0 °F 34.5 °F 30.04 in WNW 4.8 mph 8.1 mph 55 % 0.00 in
22:41 50.4 °F 34.4 °F 30.04 in WNW 2.6 mph 8.1 mph 54 % 0.00 in
22:46 50.8 °F 34.3 °F 30.04 in WNW 3.1 mph 5.8 mph 53 % 0.00 in
22:51 51.2 °F 34.2 °F 30.04 in WNW 4.6 mph 6.9 mph 52 % 0.00 in
22:56 51.5 °F 34.0 °F 30.05 in West 2.5 mph 4.6 mph 51 % 0.00 in
23:01 51.7 °F 34.1 °F 30.05 in NW 5.2 mph 6.9 mph 51 % 0.00 in
23:06 51.8 °F 36.1 °F 30.05 in North 5.1 mph 9.2 mph 55 % 0.00 in
23:11 51.6 °F 36.9 °F 30.06 in North 1.8 mph 4.6 mph 57 % 0.00 in
23:16 51.3 °F 36.6 °F 30.05 in NW 1.9 mph 3.0 mph 57 % 0.00 in
23:21 50.9 °F 36.2 °F 30.05 in West 3.1 mph 4.0 mph 57 % 0.00 in
23:26 50.4 °F 36.2 °F 30.05 in West 2.0 mph 3.5 mph 58 % 0.00 in
23:31 50.0 °F 35.8 °F 30.06 in West 1.4 mph 2.3 mph 58 % 0.00 in
23:36 49.7 °F 35.9 °F 30.05 in West 1.1 mph 3.5 mph 59 % 0.00 in
23:41 49.3 °F 36.0 °F 30.06 in West 0.6 mph 2.3 mph 60 % 0.00 in
23:46 49.0 °F 35.7 °F 30.06 in West 1.0 mph 2.3 mph 60 % 0.00 in
23:51 48.7 °F 35.8 °F 30.05 in Calm     61 % 0.00 in
23:56 48.4 °F 36.0 °F 30.06 in Calm     62 % 0.00 in
Crab Meadow Weather
Compliments of Weather Underground - 3 mb

Script developed by  Jim McMurry - jmcmurry@mwt.net Adapted for the template by  Wim van der Kuil - Leuven-Template.eu

Weather Terms: Enhanced Fujita Scale or EF-Scale - A scale of wind damage intensity in which wind speeds are inferred from analysis of wind damage. All tornadoes and most other windstorms are assigned a numerical rating from this scale according to the most intense damage caused by the storm. EF0 (weak) 6585 mph, light damage EF1 (weak) 86110 mph, moderate damage EF2 (strong) 111135 mph, considerable damage EF3 (strong) 136165 mph, severe damage EF4 (violent) 166200 mph, devastating damage EF5 (violent) >200 mph, incredible damage.